Thunder radar more information blitzortung!


Radar de pluja more information rain snow radar


Visita la nostra xarxa de llocs de meteo:

Template documentation
and downloads

And another site



No particular awareness of the weather is required.    There are no Weather-warnings

Pagina Historial Weather Underground text

Diari Resum May 16, 2017 Unitats:  Mètric    Imperial   Tant
« Previous Dia
SegĂźent Dia »
Diari Setmana Mensual Anual Personalitzada
  Maxima: Minima: Media:
Temperatura: 29.4 °C 14.9 °C 23.1 °C
Punt de rosada: 13.3 °C 5.7 °C 9.7 °C
Humitat: 72 % 28 % 45 %
Wind Speed: 22.2 km/h 0.0 km/h 6.6 km/h
RĂ fegues de vent: 22.2 km/h - -
Vent:- - SSE
Pression baro: 1026.0 hPa 1022.9 hPa -
Precipitacions: 0.0 mm    
Historical Graphs
 
 
Dades de taula per May 16, 2017
Temps Temperatura Punt de rosada Pression baro Vent Wind Speed RĂ fegues de vent Humitat Rainfall Rate (Hourly)
00:03 18.4 °C 10.2 °C 1026.0 hPa Calm     59 % 0.0 mm
00:05 15.6 °C 10.2 °C 1026.0 hPa Calm   1.6 km/h 70 % 0.0 mm
00:15 15.4 °C 9.9 °C 1026.0 hPa Calm     70 % 0.0 mm
00:25 15.3 °C 9.8 °C 1026.0 hPa Calm     70 % 0.0 mm
00:35 15.3 °C 9.8 °C 1026.0 hPa Calm   1.6 km/h 70 % 0.0 mm
00:45 15.3 °C 9.8 °C 1026.0 hPa Calm   3.2 km/h 70 % 0.0 mm
01:05 15.3 °C 9.8 °C 1026.0 hPa Calm     70 % 0.0 mm
01:15 15.2 °C 10.0 °C 1024.9 hPa Calm   1.6 km/h 71 % 0.0 mm
01:25 14.9 °C 9.5 °C 1026.0 hPa WSW 1.6 km/h 1.6 km/h 70 % 0.0 mm
01:35 14.9 °C 9.5 °C 1026.0 hPa WSW 3.2 km/h 3.2 km/h 70 % 0.0 mm
01:45 14.9 °C 9.5 °C 1026.0 hPa WSW 3.2 km/h 3.2 km/h 70 % 0.0 mm
01:55 14.9 °C 9.7 °C 1026.0 hPa Calm   3.2 km/h 71 % 0.0 mm
02:05 14.9 °C 9.9 °C 1026.0 hPa Calm     72 % 0.0 mm
02:15 15.4 °C 10.4 °C 1026.0 hPa Calm   1.6 km/h 72 % 0.0 mm
02:25 15.8 °C 10.6 °C 1026.0 hPa Calm     71 % 0.0 mm
02:35 16.2 °C 10.9 °C 1026.0 hPa Calm     71 % 0.0 mm
02:45 16.3 °C 10.8 °C 1026.0 hPa SSE 1.6 km/h 1.6 km/h 70 % 0.0 mm
02:55 16.9 °C 11.2 °C 1026.0 hPa East 1.6 km/h 3.2 km/h 69 % 0.0 mm
03:05 16.8 °C 10.8 °C 1026.0 hPa ESE 1.6 km/h 3.2 km/h 68 % 0.0 mm
03:15 16.8 °C 10.8 °C 1026.0 hPa SSW 1.6 km/h 3.2 km/h 68 % 0.0 mm
03:25 16.9 °C 10.9 °C 1026.0 hPa SW 1.6 km/h 3.2 km/h 68 % 0.0 mm
03:35 17.3 °C 10.9 °C 1026.0 hPa SW 3.2 km/h 4.8 km/h 66 % 0.0 mm
03:45 18.8 °C 12.3 °C 1026.0 hPa SSW 1.6 km/h 1.6 km/h 66 % 0.0 mm
03:55 19.0 °C 11.6 °C 1026.0 hPa SSW 1.6 km/h 3.2 km/h 62 % 0.0 mm
04:05 19.5 °C 12.0 °C 1026.0 hPa SW 1.6 km/h 3.2 km/h 62 % 0.0 mm
04:15 20.7 °C 12.7 °C 1026.0 hPa South 1.6 km/h 3.2 km/h 60 % 0.0 mm
04:25 21.0 °C 12.4 °C 1026.0 hPa ENE 1.6 km/h 4.8 km/h 58 % 0.0 mm
04:35 21.4 °C 12.8 °C 1026.0 hPa NE 1.6 km/h 4.8 km/h 58 % 0.0 mm
04:45 21.2 °C 12.3 °C 1026.0 hPa ENE 3.2 km/h 4.8 km/h 57 % 0.0 mm
04:55 21.4 °C 12.5 °C 1026.0 hPa NE 8.0 km/h 9.7 km/h 57 % 0.0 mm
05:05 22.2 °C 12.7 °C 1026.0 hPa NE 3.2 km/h 6.4 km/h 55 % 0.0 mm
05:15 22.7 °C 13.2 °C 1026.0 hPa ENE 1.6 km/h 4.8 km/h 55 % 0.0 mm
05:25 23.2 °C 13.1 °C 1026.0 hPa NE 1.6 km/h 6.4 km/h 53 % 0.0 mm
05:35 23.3 °C 12.3 °C 1026.0 hPa NNE 4.8 km/h 6.4 km/h 50 % 0.0 mm
05:45 24.1 °C 13.0 °C 1026.0 hPa East 3.2 km/h 4.8 km/h 50 % 0.0 mm
10:46 24.1 °C 13.0 °C 1026.0 hPa ENE 1.9 km/h   50 % 0.0 mm
10:51 24.2 °C 13.1 °C 1026.0 hPa NNE 7.4 km/h 7.4 km/h 50 % 0.0 mm
10:56 24.5 °C 13.1 °C 1026.0 hPa NE 7.4 km/h 7.4 km/h 49 % 0.0 mm
11:01 24.4 °C 13.0 °C 1026.0 hPa ENE 7.9 km/h 7.9 km/h 49 % 0.0 mm
11:06 24.4 °C 12.7 °C 1026.0 hPa ESE 5.6 km/h 5.6 km/h 48 % 0.0 mm
11:11 24.8 °C 13.1 °C 1026.0 hPa ENE 9.3 km/h 9.3 km/h 48 % 0.0 mm
11:16 25.1 °C 13.3 °C 1026.0 hPa NNE 5.6 km/h 5.6 km/h 48 % 0.0 mm
11:21 25.0 °C 12.9 °C 1026.0 hPa East 5.6 km/h 5.6 km/h 47 % 0.0 mm
11:26 25.1 °C 13.0 °C 1026.0 hPa East 9.3 km/h 9.3 km/h 47 % 0.0 mm
11:31 24.9 °C 12.8 °C 1026.0 hPa East 9.3 km/h 9.3 km/h 47 % 0.0 mm
11:36 25.0 °C 12.6 °C 1026.0 hPa ENE 11.1 km/h 11.1 km/h 46 % 0.0 mm
11:41 25.2 °C 12.8 °C 1024.9 hPa ENE 7.4 km/h 7.4 km/h 46 % 0.0 mm
11:46 25.6 °C 13.1 °C 1024.9 hPa ESE 9.3 km/h 9.3 km/h 46 % 0.0 mm
11:51 25.8 °C 12.9 °C 1024.9 hPa ENE 7.4 km/h 7.4 km/h 45 % 0.0 mm
11:56 26.1 °C 13.2 °C 1026.0 hPa ESE 9.5 km/h 9.5 km/h 45 % 0.0 mm
12:01 26.2 °C 13.3 °C 1026.0 hPa ESE 7.4 km/h 7.4 km/h 45 % 0.0 mm
12:06 26.5 °C 13.3 °C 1026.0 hPa SE 7.4 km/h 7.4 km/h 44 % 0.0 mm
12:11 26.5 °C 13.3 °C 1026.0 hPa NNE 7.4 km/h 7.4 km/h 44 % 0.0 mm
12:16 26.4 °C 12.4 °C 1026.0 hPa North 5.0 km/h 5.0 km/h 42 % 0.0 mm
12:21 27.1 °C 12.7 °C 1026.0 hPa SSE 7.4 km/h 7.4 km/h 41 % 0.0 mm
12:26 26.9 °C 12.6 °C 1026.0 hPa SE 9.7 km/h 9.7 km/h 41 % 0.0 mm
12:31 26.6 °C 12.3 °C 1026.0 hPa ESE 7.4 km/h 7.4 km/h 41 % 0.0 mm
12:36 26.6 °C 12.3 °C 1026.0 hPa SE 13.0 km/h 13.0 km/h 41 % 0.0 mm
12:41 26.7 °C 12.3 °C 1026.0 hPa NE 9.3 km/h 9.3 km/h 41 % 0.0 mm
12:46 26.7 °C 12.3 °C 1026.0 hPa ENE 14.8 km/h 14.8 km/h 41 % 0.0 mm
12:51 27.1 °C 12.7 °C 1026.0 hPa ENE 9.5 km/h 9.5 km/h 41 % 0.0 mm
12:56 27.1 °C 12.3 °C 1024.9 hPa East 9.7 km/h 9.7 km/h 40 % 0.0 mm
13:01 27.1 °C 12.3 °C 1024.9 hPa ESE 9.3 km/h 9.3 km/h 40 % 0.0 mm
13:06 26.8 °C 12.1 °C 1024.9 hPa SE 11.1 km/h 11.1 km/h 40 % 0.0 mm
13:11 26.8 °C 12.1 °C 1026.0 hPa SE 13.0 km/h 13.0 km/h 40 % 0.0 mm
13:16 26.7 °C 12.0 °C 1026.0 hPa ESE 15.6 km/h 15.6 km/h 40 % 0.0 mm
13:21 26.4 °C 11.7 °C 1026.0 hPa East 18.5 km/h 18.5 km/h 40 % 0.0 mm
13:26 26.5 °C 11.8 °C 1024.9 hPa SE 15.8 km/h 15.8 km/h 40 % 0.0 mm
13:31 26.5 °C 11.8 °C 1024.9 hPa ENE 16.7 km/h 16.7 km/h 40 % 0.0 mm
13:36 26.7 °C 12.0 °C 1024.9 hPa SSE 13.0 km/h 13.0 km/h 40 % 0.0 mm
13:41 26.4 °C 11.3 °C 1023.9 hPa ESE 16.9 km/h 16.9 km/h 39 % 0.0 mm
13:46 26.7 °C 12.0 °C 1023.9 hPa East 9.3 km/h 9.3 km/h 40 % 0.0 mm
13:51 26.5 °C 11.4 °C 1023.9 hPa East 13.0 km/h 13.0 km/h 39 % 0.0 mm
13:56 26.4 °C 11.3 °C 1023.9 hPa SE 14.8 km/h 14.8 km/h 39 % 0.0 mm
14:01 26.8 °C 11.7 °C 1023.9 hPa SE 17.5 km/h 17.5 km/h 39 % 0.0 mm
14:06 27.1 °C 11.9 °C 1023.9 hPa ESE 16.1 km/h 16.1 km/h 39 % 0.0 mm
14:11 26.4 °C 11.3 °C 1023.9 hPa NNE 18.5 km/h 18.5 km/h 39 % 0.0 mm
14:16 26.5 °C 11.4 °C 1023.9 hPa ESE 14.8 km/h 14.8 km/h 39 % 0.0 mm
14:21 26.2 °C 11.2 °C 1023.9 hPa ESE 20.4 km/h 20.4 km/h 39 % 0.0 mm
14:26 26.1 °C 11.1 °C 1023.9 hPa ESE 16.7 km/h 16.7 km/h 39 % 0.0 mm
14:31 26.3 °C 11.2 °C 1023.9 hPa ESE 9.3 km/h 9.3 km/h 39 % 0.0 mm
14:36 26.0 °C 10.9 °C 1023.9 hPa ESE 15.6 km/h 15.6 km/h 39 % 0.0 mm
14:41 26.0 °C 10.9 °C 1023.9 hPa ESE 20.4 km/h 20.4 km/h 39 % 0.0 mm
14:46 26.2 °C 11.6 °C 1023.9 hPa ESE 13.0 km/h 13.0 km/h 40 % 0.0 mm
14:51 26.3 °C 11.6 °C 1023.9 hPa ESE 16.1 km/h 16.1 km/h 40 % 0.0 mm
14:56 26.3 °C 11.6 °C 1023.9 hPa ENE 14.8 km/h 14.8 km/h 40 % 0.0 mm
15:01 26.2 °C 11.6 °C 1023.9 hPa ENE 14.8 km/h 14.8 km/h 40 % 0.0 mm
15:06 26.3 °C 11.6 °C 1023.9 hPa ESE 7.4 km/h 7.4 km/h 40 % 0.0 mm
15:11 26.3 °C 11.6 °C 1023.9 hPa ESE 11.1 km/h 11.1 km/h 40 % 0.0 mm
15:16 26.1 °C 11.4 °C 1023.9 hPa ENE 13.0 km/h 13.0 km/h 40 % 0.0 mm
15:21 26.1 °C 11.4 °C 1023.9 hPa ENE 14.8 km/h 14.8 km/h 40 % 0.0 mm
15:26 26.3 °C 11.6 °C 1023.9 hPa ENE 16.7 km/h 16.7 km/h 40 % 0.0 mm
15:31 26.2 °C 11.6 °C 1023.9 hPa ESE 13.0 km/h 13.0 km/h 40 % 0.0 mm
15:36 26.1 °C 11.4 °C 1023.9 hPa NNE 9.3 km/h 9.3 km/h 40 % 0.0 mm
15:37 26.1 °C 11.8 °C 1023.9 hPa NNE 9.3 km/h 9.3 km/h 41 % 0.0 mm
15:42 26.6 °C 11.9 °C 1023.9 hPa SW 9.3 km/h 9.3 km/h 40 % 0.0 mm
15:47 28.4 °C 12.7 °C 1023.9 hPa ESE 5.6 km/h 5.6 km/h 38 % 0.0 mm
15:52 28.5 °C 12.0 °C 1023.9 hPa South 9.3 km/h 9.3 km/h 36 % 0.0 mm
15:57 29.2 °C 12.2 °C 1023.9 hPa SSE 5.8 km/h 5.8 km/h 35 % 0.0 mm
16:02 29.4 °C 11.9 °C 1023.9 hPa SSE 13.0 km/h 13.0 km/h 34 % 0.0 mm
16:07 29.0 °C 10.2 °C 1023.9 hPa WSW 15.6 km/h 15.6 km/h 31 % 0.0 mm
16:12 29.2 °C 10.3 °C 1023.9 hPa SW 11.1 km/h 11.1 km/h 31 % 0.0 mm
16:17 29.3 °C 10.4 °C 1023.9 hPa SW 11.1 km/h 11.1 km/h 31 % 0.0 mm
16:22 29.3 °C 9.9 °C 1023.9 hPa SW 10.0 km/h 10.0 km/h 30 % 0.0 mm
16:27 29.3 °C 9.4 °C 1023.9 hPa ESE 11.1 km/h 11.1 km/h 29 % 0.0 mm
16:32 29.4 °C 9.5 °C 1023.9 hPa SSW 11.1 km/h 11.1 km/h 29 % 0.0 mm
16:37 29.3 °C 8.9 °C 1023.9 hPa SW 13.7 km/h 13.7 km/h 28 % 0.0 mm
16:42 28.9 °C 9.1 °C 1023.9 hPa SW 13.0 km/h 13.0 km/h 29 % 0.0 mm
16:47 28.7 °C 8.9 °C 1023.9 hPa SW 13.0 km/h 13.0 km/h 29 % 0.0 mm
16:52 29.0 °C 8.7 °C 1023.9 hPa South 9.3 km/h 9.3 km/h 28 % 0.0 mm
16:57 29.0 °C 8.7 °C 1022.9 hPa WSW 7.4 km/h 7.4 km/h 28 % 0.0 mm
17:02 29.1 °C 8.7 °C 1022.9 hPa SW 13.0 km/h 13.0 km/h 28 % 0.0 mm
17:07 28.6 °C 8.3 °C 1022.9 hPa SW 18.5 km/h 18.5 km/h 28 % 0.0 mm
17:12 28.4 °C 8.1 °C 1023.9 hPa WSW 18.5 km/h 18.5 km/h 28 % 0.0 mm
17:17 28.2 °C 7.9 °C 1023.9 hPa SW 16.7 km/h 16.7 km/h 28 % 0.0 mm
17:22 28.2 °C 7.9 °C 1023.9 hPa South 20.4 km/h 20.4 km/h 28 % 0.0 mm
17:27 28.5 °C 8.2 °C 1023.9 hPa SW 5.6 km/h 5.6 km/h 28 % 0.0 mm
17:32 28.6 °C 8.3 °C 1023.9 hPa SW 9.0 km/h 9.0 km/h 28 % 0.0 mm
17:37 28.2 °C 7.9 °C 1023.9 hPa SSW 13.0 km/h 13.0 km/h 28 % 0.0 mm
17:42 28.5 °C 8.2 °C 1023.9 hPa SW 13.0 km/h 13.0 km/h 28 % 0.0 mm
17:47 28.5 °C 8.2 °C 1023.9 hPa SW 11.1 km/h 11.1 km/h 28 % 0.0 mm
17:52 28.2 °C 7.9 °C 1023.9 hPa SW 14.8 km/h 14.8 km/h 28 % 0.0 mm
17:57 28.2 °C 7.9 °C 1023.9 hPa WSW 13.0 km/h 13.0 km/h 28 % 0.0 mm
18:02 28.0 °C 8.3 °C 1023.9 hPa SW 22.2 km/h 22.2 km/h 29 % 0.0 mm
18:07 28.0 °C 7.8 °C 1023.9 hPa SSE 9.3 km/h 9.3 km/h 28 % 0.0 mm
18:12 28.2 °C 8.5 °C 1023.9 hPa SW 7.4 km/h 7.4 km/h 29 % 0.0 mm
18:17 27.9 °C 8.2 °C 1023.9 hPa SW 13.0 km/h 13.0 km/h 29 % 0.0 mm
18:22 27.7 °C 8.1 °C 1023.9 hPa SW 13.0 km/h 13.0 km/h 29 % 0.0 mm
18:27 27.7 °C 8.1 °C 1023.9 hPa WSW 11.1 km/h 11.1 km/h 29 % 0.0 mm
18:32 27.6 °C 7.9 °C 1023.9 hPa SSW 9.3 km/h 9.3 km/h 29 % 0.0 mm
18:37 27.4 °C 7.3 °C 1023.9 hPa SW 19.5 km/h 19.5 km/h 28 % 0.0 mm
18:42 27.3 °C 7.2 °C 1023.9 hPa SW 11.1 km/h 11.1 km/h 28 % 0.0 mm
18:47 27.1 °C 7.0 °C 1023.9 hPa SSW 9.3 km/h 9.3 km/h 28 % 0.0 mm
18:52 27.4 °C 7.8 °C 1023.9 hPa SW 9.3 km/h 9.3 km/h 29 % 0.0 mm
18:57 27.3 °C 7.7 °C 1024.9 hPa South 9.3 km/h 9.3 km/h 29 % 0.0 mm
19:02 27.2 °C 7.6 °C 1024.9 hPa SW 7.9 km/h 7.9 km/h 29 % 0.0 mm
19:07 26.8 °C 7.3 °C 1024.9 hPa SW 9.3 km/h 9.3 km/h 29 % 0.0 mm
19:12 26.6 °C 7.1 °C 1023.9 hPa South 7.4 km/h 7.4 km/h 29 % 0.0 mm
19:15 18.9 °C 9.4 °C 1026.0 hPa Calm   1.6 km/h 54 % 0.0 mm
19:17 26.7 °C 7.2 °C 1023.9 hPa SW 5.6 km/h 5.6 km/h 29 % 0.0 mm
19:22 26.5 °C 7.0 °C 1023.9 hPa SW 7.6 km/h 7.6 km/h 29 % 0.0 mm
19:25 18.7 °C 9.7 °C 1026.0 hPa Calm   1.6 km/h 56 % 0.0 mm
19:27 26.4 °C 7.4 °C 1023.9 hPa South 5.6 km/h 5.6 km/h 30 % 0.0 mm
19:32 26.0 °C 6.6 °C 1023.9 hPa WSW 11.1 km/h 11.1 km/h 29 % 0.0 mm
19:35 18.6 °C 9.9 °C 1026.0 hPa Calm     57 % 0.0 mm
19:37 26.0 °C 6.6 °C 1023.9 hPa SW 11.1 km/h 11.1 km/h 29 % 0.0 mm
19:42 25.7 °C 6.3 °C 1024.9 hPa SW 9.3 km/h 9.3 km/h 29 % 0.0 mm
19:45 18.4 °C 10.0 °C 1026.0 hPa Calm     58 % 0.0 mm
19:47 25.5 °C 6.7 °C 1024.9 hPa SW 9.3 km/h 9.3 km/h 30 % 0.0 mm
19:52 25.4 °C 6.6 °C 1024.9 hPa SW 9.7 km/h 9.7 km/h 30 % 0.0 mm
19:55 18.3 °C 10.2 °C 1026.0 hPa Calm   1.6 km/h 59 % 0.0 mm
19:57 25.2 °C 6.4 °C 1024.9 hPa WSW 6.9 km/h 6.9 km/h 30 % 0.0 mm
20:02 25.0 °C 6.2 °C 1024.9 hPa WSW 7.4 km/h 7.4 km/h 30 % 0.0 mm
20:05 18.3 °C 10.4 °C 1026.0 hPa NNE 1.6 km/h 3.2 km/h 60 % 0.0 mm
20:07 24.8 °C 6.5 °C 1024.9 hPa SW 9.3 km/h 9.3 km/h 31 % 0.0 mm
20:12 24.7 °C 6.4 °C 1024.9 hPa SW 7.4 km/h 7.4 km/h 31 % 0.0 mm
20:15 18.2 °C 10.8 °C 1024.9 hPa Calm   3.2 km/h 62 % 0.0 mm
20:17 24.5 °C 6.3 °C 1024.9 hPa SW 7.4 km/h 7.4 km/h 31 % 0.0 mm
20:22 24.3 °C 6.1 °C 1024.9 hPa SSW 9.3 km/h 9.3 km/h 31 % 0.0 mm
20:25 18.1 °C 10.7 °C 1026.0 hPa Calm   1.6 km/h 62 % 0.0 mm
20:27 24.1 °C 5.9 °C 1026.0 hPa SSW 5.6 km/h 5.6 km/h 31 % 0.0 mm
20:32 23.9 °C 5.7 °C 1026.0 hPa SW 7.4 km/h 7.4 km/h 31 % 0.0 mm
20:37 23.7 °C 6.0 °C 1026.0 hPa SSW 7.4 km/h 7.4 km/h 32 % 0.0 mm
20:42 23.5 °C 5.8 °C 1026.0 hPa SW 3.7 km/h 3.7 km/h 32 % 0.0 mm
20:45 17.7 °C 10.6 °C 1026.0 hPa Calm   3.2 km/h 63 % 0.0 mm
20:47 23.3 °C 5.7 °C 1026.0 hPa SW 5.6 km/h 5.6 km/h 32 % 0.0 mm
20:52 23.0 °C 5.8 °C 1026.0 hPa South 7.4 km/h 7.4 km/h 33 % 0.0 mm
20:55 17.5 °C 10.4 °C 1026.0 hPa NE 1.6 km/h 1.6 km/h 63 % 0.0 mm
20:57 22.8 °C 6.1 °C 1023.9 hPa SW 4.7 km/h 4.7 km/h 34 % 0.0 mm
21:02 22.7 °C 6.0 °C 1023.9 hPa West 7.4 km/h 7.4 km/h 34 % 0.0 mm
21:05 17.4 °C 9.8 °C 1026.0 hPa Calm   1.6 km/h 61 % 0.0 mm
21:07 22.5 °C 6.3 °C 1023.9 hPa WSW 5.6 km/h 5.6 km/h 35 % 0.0 mm
21:12 22.4 °C 6.6 °C 1023.9 hPa SW 3.7 km/h 3.7 km/h 36 % 0.0 mm
21:15 17.3 °C 9.9 °C 1026.0 hPa Calm     62 % 0.0 mm
21:17 22.2 °C 6.4 °C 1023.9 hPa WSW 3.7 km/h 3.7 km/h 36 % 0.0 mm
21:22 22.1 °C 6.7 °C 1023.9 hPa SW 3.7 km/h 3.7 km/h 37 % 0.0 mm
21:25 17.1 °C 9.8 °C 1026.0 hPa SSE 1.6 km/h 3.2 km/h 62 % 0.0 mm
21:27 22.0 °C 6.6 °C 1023.9 hPa SW 3.7 km/h 3.7 km/h 37 % 0.0 mm
21:32 21.9 °C 6.6 °C 1023.9 hPa SW 3.7 km/h 3.7 km/h 37 % 0.0 mm
21:35 17.0 °C 10.1 °C 1026.0 hPa Calm   1.6 km/h 64 % 0.0 mm
21:37 21.8 °C 6.8 °C 1023.9 hPa Calm     38 % 0.0 mm
21:42 21.7 °C 6.8 °C 1023.9 hPa West 1.9 km/h   38 % 0.0 mm
21:45 16.9 °C 10.3 °C 1024.9 hPa South 1.6 km/h 1.6 km/h 65 % 0.0 mm
21:47 21.6 °C 6.7 °C 1023.9 hPa West 2.3 km/h   38 % 0.0 mm
21:52 21.5 °C 6.9 °C 1023.9 hPa Calm     39 % 0.0 mm
21:55 16.8 °C 10.2 °C 1024.9 hPa East 1.6 km/h 3.2 km/h 65 % 0.0 mm
21:57 21.3 °C 6.8 °C 1024.9 hPa Calm     39 % 0.0 mm
22:02 21.3 °C 6.8 °C 1024.9 hPa Calm     39 % 0.0 mm
22:05 16.7 °C 9.8 °C 1024.9 hPa Calm   1.6 km/h 64 % 0.0 mm
22:07 21.2 °C 6.7 °C 1024.9 hPa Calm     39 % 0.0 mm
22:12 21.1 °C 6.9 °C 1024.9 hPa Calm     40 % 0.0 mm
22:15 16.6 °C 9.8 °C 1023.9 hPa Calm   3.2 km/h 64 % 0.0 mm
22:17 21.0 °C 6.9 °C 1024.9 hPa Calm     40 % 0.0 mm
22:22 20.9 °C 7.2 °C 1024.9 hPa Calm     41 % 0.0 mm
22:25 16.2 °C 9.6 °C 1023.9 hPa Calm   1.6 km/h 65 % 0.0 mm
22:27 20.8 °C 7.1 °C 1026.0 hPa West 1.9 km/h   41 % 0.0 mm
22:32 20.8 °C 7.4 °C 1026.0 hPa West 1.9 km/h   42 % 0.0 mm
22:35 15.9 °C 9.3 °C 1023.9 hPa Calm   1.6 km/h 65 % 0.0 mm
22:37 20.7 °C 7.3 °C 1026.0 hPa West 1.9 km/h   42 % 0.0 mm
22:42 20.6 °C 7.2 °C 1026.0 hPa Calm     42 % 0.0 mm
22:45 15.7 °C 9.4 °C 1023.9 hPa Calm   3.2 km/h 66 % 0.0 mm
22:47 20.6 °C 7.6 °C 1026.0 hPa Calm     43 % 0.0 mm
22:52 20.5 °C 7.5 °C 1026.0 hPa West 1.9 km/h   43 % 0.0 mm
22:55 15.6 °C 9.3 °C 1023.9 hPa Calm     66 % 0.0 mm
22:57 20.4 °C 7.7 °C 1026.0 hPa East 3.7 km/h 3.7 km/h 44 % 0.0 mm
23:02 20.4 °C 7.7 °C 1026.0 hPa East 1.9 km/h 1.9 km/h 44 % 0.0 mm
23:05 15.6 °C 9.3 °C 1023.9 hPa Calm     66 % 0.0 mm
23:07 20.2 °C 8.2 °C 1026.0 hPa East 1.9 km/h   46 % 0.0 mm
23:12 20.1 °C 8.7 °C 1026.0 hPa Calm     48 % 0.0 mm
23:15 15.7 °C 9.4 °C 1023.9 hPa Calm     66 % 0.0 mm
23:17 20.0 °C 8.9 °C 1026.0 hPa Calm     49 % 0.0 mm
23:22 19.9 °C 9.2 °C 1026.0 hPa East 1.4 km/h   50 % 0.0 mm
23:25 15.6 °C 9.3 °C 1023.9 hPa WSW 1.6 km/h 3.2 km/h 66 % 0.0 mm
23:27 19.8 °C 9.1 °C 1026.0 hPa Calm     50 % 0.0 mm
23:32 19.5 °C 8.8 °C 1026.0 hPa Calm     50 % 0.0 mm
23:35 15.3 °C 9.2 °C 1023.9 hPa Calm     67 % 0.0 mm
23:37 19.4 °C 8.7 °C 1026.0 hPa Calm     50 % 0.0 mm
23:42 19.3 °C 8.6 °C 1026.0 hPa Calm     50 % 0.0 mm
23:45 15.2 °C 9.1 °C 1023.9 hPa Calm     67 % 0.0 mm
23:47 19.2 °C 8.8 °C 1026.0 hPa Calm     51 % 0.0 mm
23:52 19.1 °C 8.7 °C 1026.0 hPa SSW 2.6 km/h 2.6 km/h 51 % 0.0 mm
23:55 15.1 °C 9.0 °C 1023.9 hPa Calm     67 % 0.0 mm
23:57 19.0 °C 8.9 °C 1026.0 hPa SSW 1.9 km/h 1.9 km/h 52 % 0.0 mm
Meteo Sesrovires
Elogis d' Weather Underground - 3.75 mb

Guio original per  Jim McMurry - jmcmurry@mwt.net Adaptat per a la plantilla per  Wim van der Kuil - Leuven-Template.eu

Trobareu la nostra informacio del temps tambe a:

Weather Underground

AWEKAS